sensor_id;sensor_type;location;lat;lon;timestamp;temperature;humidity
20574;DHT22;10445;50.216;7.912;2022-09-03T00:02:18;16.60;1.00
20574;DHT22;10445;50.216;7.912;2022-09-03T00:05:13;16.60;1.00
20574;DHT22;10445;50.216;7.912;2022-09-03T00:08:07;16.50;1.00
20574;DHT22;10445;50.216;7.912;2022-09-03T00:11:02;16.50;1.00
20574;DHT22;10445;50.216;7.912;2022-09-03T00:13:58;16.50;1.00
20574;DHT22;10445;50.216;7.912;2022-09-03T00:16:53;16.50;1.00
20574;DHT22;10445;50.216;7.912;2022-09-03T00:19:45;16.40;1.00
20574;DHT22;10445;50.216;7.912;2022-09-03T00:22:39;16.50;1.00
20574;DHT22;10445;50.216;7.912;2022-09-03T00:25:38;16.50;1.00
20574;DHT22;10445;50.216;7.912;2022-09-03T00:28:34;16.50;1.00
20574;DHT22;10445;50.216;7.912;2022-09-03T00:31:30;16.40;1.00
20574;DHT22;10445;50.216;7.912;2022-09-03T00:34:23;16.50;1.00
20574;DHT22;10445;50.216;7.912;2022-09-03T00:37:13;16.40;1.00
20574;DHT22;10445;50.216;7.912;2022-09-03T00:40:05;16.50;1.00
20574;DHT22;10445;50.216;7.912;2022-09-03T00:43:04;16.40;1.00
20574;DHT22;10445;50.216;7.912;2022-09-03T00:46:02;16.40;1.00
20574;DHT22;10445;50.216;7.912;2022-09-03T00:49:13;16.30;1.00
20574;DHT22;10445;50.216;7.912;2022-09-03T00:52:12;16.20;1.00
20574;DHT22;10445;50.216;7.912;2022-09-03T00:55:14;16.20;1.00
20574;DHT22;10445;50.216;7.912;2022-09-03T00:58:21;16.20;1.00
20574;DHT22;10445;50.216;7.912;2022-09-03T01:01:15;16.20;1.00
20574;DHT22;10445;50.216;7.912;2022-09-03T01:04:23;16.20;1.00
20574;DHT22;10445;50.216;7.912;2022-09-03T01:07:20;16.10;1.00
20574;DHT22;10445;50.216;7.912;2022-09-03T01:10:20;16.10;1.00
20574;DHT22;10445;50.216;7.912;2022-09-03T01:13:17;16.20;1.00
20574;DHT22;10445;50.216;7.912;2022-09-03T01:16:13;16.10;1.00
20574;DHT22;10445;50.216;7.912;2022-09-03T01:19:20;16.10;1.00
20574;DHT22;10445;50.216;7.912;2022-09-03T01:22:26;16.00;1.00
20574;DHT22;10445;50.216;7.912;2022-09-03T01:25:29;16.00;1.00
20574;DHT22;10445;50.216;7.912;2022-09-03T01:28:38;15.90;1.00
20574;DHT22;10445;50.216;7.912;2022-09-03T01:31:35;15.90;1.00
20574;DHT22;10445;50.216;7.912;2022-09-03T01:34:35;15.80;1.00
20574;DHT22;10445;50.216;7.912;2022-09-03T01:37:37;15.80;1.00
20574;DHT22;10445;50.216;7.912;2022-09-03T01:40:36;15.80;1.00
20574;DHT22;10445;50.216;7.912;2022-09-03T01:43:38;15.70;1.00
20574;DHT22;10445;50.216;7.912;2022-09-03T01:46:36;15.70;1.00
20574;DHT22;10445;50.216;7.912;2022-09-03T01:49:30;15.60;1.00
20574;DHT22;10445;50.216;7.912;2022-09-03T01:52:28;15.50;1.00
20574;DHT22;10445;50.216;7.912;2022-09-03T01:55:30;15.30;1.00
20574;DHT22;10445;50.216;7.912;2022-09-03T01:58:25;15.30;1.00
20574;DHT22;10445;50.216;7.912;2022-09-03T02:01:23;15.20;1.00
20574;DHT22;10445;50.216;7.912;2022-09-03T02:04:18;15.10;1.00
20574;DHT22;10445;50.216;7.912;2022-09-03T02:07:09;15.10;1.00
20574;DHT22;10445;50.216;7.912;2022-09-03T02:09:59;15.00;1.00
20574;DHT22;10445;50.216;7.912;2022-09-03T02:12:50;15.00;1.00
20574;DHT22;10445;50.216;7.912;2022-09-03T02:15:43;15.00;1.00
20574;DHT22;10445;50.216;7.912;2022-09-03T02:18:37;15.00;1.00
20574;DHT22;10445;50.216;7.912;2022-09-03T02:21:33;14.90;1.00
20574;DHT22;10445;50.216;7.912;2022-09-03T02:24:24;14.90;1.00
20574;DHT22;10445;50.216;7.912;2022-09-03T02:27:13;14.80;1.00
20574;DHT22;10445;50.216;7.912;2022-09-03T02:30:02;14.80;1.00
20574;DHT22;10445;50.216;7.912;2022-09-03T02:32:51;14.80;1.00
20574;DHT22;10445;50.216;7.912;2022-09-03T02:35:42;14.80;1.00
20574;DHT22;10445;50.216;7.912;2022-09-03T02:38:31;14.80;1.00
20574;DHT22;10445;50.216;7.912;2022-09-03T02:41:20;14.70;1.00
20574;DHT22;10445;50.216;7.912;2022-09-03T02:44:12;14.70;1.00
20574;DHT22;10445;50.216;7.912;2022-09-03T02:47:05;14.80;1.00
20574;DHT22;10445;50.216;7.912;2022-09-03T02:49:54;14.70;1.00
20574;DHT22;10445;50.216;7.912;2022-09-03T02:52:45;14.70;1.00
20574;DHT22;10445;50.216;7.912;2022-09-03T02:55:33;14.70;1.00
20574;DHT22;10445;50.216;7.912;2022-09-03T02:58:22;14.70;1.00
20574;DHT22;10445;50.216;7.912;2022-09-03T03:01:11;14.80;1.00
20574;DHT22;10445;50.216;7.912;2022-09-03T03:04:10;14.80;1.00
20574;DHT22;10445;50.216;7.912;2022-09-03T03:06:58;14.80;1.00
20574;DHT22;10445;50.216;7.912;2022-09-03T03:09:48;14.80;1.00
20574;DHT22;10445;50.216;7.912;2022-09-03T03:12:37;14.70;1.00
20574;DHT22;10445;50.216;7.912;2022-09-03T03:15:26;14.80;1.00
20574;DHT22;10445;50.216;7.912;2022-09-03T03:18:15;14.70;1.00
20574;DHT22;10445;50.216;7.912;2022-09-03T03:21:04;14.80;1.00
20574;DHT22;10445;50.216;7.912;2022-09-03T03:23:53;14.80;1.00
20574;DHT22;10445;50.216;7.912;2022-09-03T03:26:44;14.70;1.00
20574;DHT22;10445;50.216;7.912;2022-09-03T03:29:33;14.70;1.00
20574;DHT22;10445;50.216;7.912;2022-09-03T03:32:22;14.80;1.00
20574;DHT22;10445;50.216;7.912;2022-09-03T03:35:10;14.80;1.00
20574;DHT22;10445;50.216;7.912;2022-09-03T03:37:59;14.70;1.00
20574;DHT22;10445;50.216;7.912;2022-09-03T03:40:49;14.70;1.00
20574;DHT22;10445;50.216;7.912;2022-09-03T03:43:40;14.70;1.00
20574;DHT22;10445;50.216;7.912;2022-09-03T03:46:30;14.70;1.00
20574;DHT22;10445;50.216;7.912;2022-09-03T03:49:19;14.70;1.00
20574;DHT22;10445;50.216;7.912;2022-09-03T03:52:08;14.70;1.00
20574;DHT22;10445;50.216;7.912;2022-09-03T03:54:57;14.70;1.00
20574;DHT22;10445;50.216;7.912;2022-09-03T03:57:45;14.80;1.00
20574;DHT22;10445;50.216;7.912;2022-09-03T04:00:35;14.80;1.00
20574;DHT22;10445;50.216;7.912;2022-09-03T04:03:25;14.70;1.00
20574;DHT22;10445;50.216;7.912;2022-09-03T04:06:16;14.80;1.00
20574;DHT22;10445;50.216;7.912;2022-09-03T04:09:06;14.80;1.00
20574;DHT22;10445;50.216;7.912;2022-09-03T04:11:55;14.80;1.00
20574;DHT22;10445;50.216;7.912;2022-09-03T04:14:44;14.70;1.00
20574;DHT22;10445;50.216;7.912;2022-09-03T04:17:34;14.80;1.00
20574;DHT22;10445;50.216;7.912;2022-09-03T04:20:23;14.70;1.00
20574;DHT22;10445;50.216;7.912;2022-09-03T04:23:11;14.70;1.00
20574;DHT22;10445;50.216;7.912;2022-09-03T04:26:00;14.80;1.00
20574;DHT22;10445;50.216;7.912;2022-09-03T04:28:51;14.80;1.00
20574;DHT22;10445;50.216;7.912;2022-09-03T04:31:39;14.80;1.00
20574;DHT22;10445;50.216;7.912;2022-09-03T04:34:50;14.80;1.00
20574;DHT22;10445;50.216;7.912;2022-09-03T04:37:39;14.80;1.00
20574;DHT22;10445;50.216;7.912;2022-09-03T04:40:28;14.80;1.00
20574;DHT22;10445;50.216;7.912;2022-09-03T04:43:17;14.80;1.00
20574;DHT22;10445;50.216;7.912;2022-09-03T04:46:06;14.70;1.00
20574;DHT22;10445;50.216;7.912;2022-09-03T04:49:03;14.80;1.00
20574;DHT22;10445;50.216;7.912;2022-09-03T04:51:54;14.70;1.00
20574;DHT22;10445;50.216;7.912;2022-09-03T04:54:43;14.70;1.00
20574;DHT22;10445;50.216;7.912;2022-09-03T04:57:33;14.80;1.00
20574;DHT22;10445;50.216;7.912;2022-09-03T05:00:24;14.80;1.00
20574;DHT22;10445;50.216;7.912;2022-09-03T05:03:12;14.80;1.00
20574;DHT22;10445;50.216;7.912;2022-09-03T05:06:02;14.80;1.00
20574;DHT22;10445;50.216;7.912;2022-09-03T05:08:55;14.80;1.00
20574;DHT22;10445;50.216;7.912;2022-09-03T05:11:43;14.80;1.00
20574;DHT22;10445;50.216;7.912;2022-09-03T05:14:33;14.80;1.00
20574;DHT22;10445;50.216;7.912;2022-09-03T05:17:22;14.70;1.00
20574;DHT22;10445;50.216;7.912;2022-09-03T05:20:10;14.70;1.00
20574;DHT22;10445;50.216;7.912;2022-09-03T05:23:01;14.60;1.00
20574;DHT22;10445;50.216;7.912;2022-09-03T05:25:55;14.50;1.00
20574;DHT22;10445;50.216;7.912;2022-09-03T05:28:45;14.50;1.00
20574;DHT22;10445;50.216;7.912;2022-09-03T05:31:35;14.40;3.10
20574;DHT22;10445;50.216;7.912;2022-09-03T05:34:24;14.50;1.90
20574;DHT22;10445;50.216;7.912;2022-09-03T05:37:13;14.50;2.80
20574;DHT22;10445;50.216;7.912;2022-09-03T05:40:02;14.60;2.50
20574;DHT22;10445;50.216;7.912;2022-09-03T05:42:55;14.60;4.40
20574;DHT22;10445;50.216;7.912;2022-09-03T05:45:46;14.60;2.50
20574;DHT22;10445;50.216;7.912;2022-09-03T05:48:36;14.60;1.50
20574;DHT22;10445;50.216;7.912;2022-09-03T05:51:26;14.70;1.00
20574;DHT22;10445;50.216;7.912;2022-09-03T05:54:15;14.70;1.10
20574;DHT22;10445;50.216;7.912;2022-09-03T05:57:04;14.70;1.30
20574;DHT22;10445;50.216;7.912;2022-09-03T05:59:54;14.80;1.00
20574;DHT22;10445;50.216;7.912;2022-09-03T06:02:43;14.70;4.10
20574;DHT22;10445;50.216;7.912;2022-09-03T06:05:37;14.50;4.80
20574;DHT22;10445;50.216;7.912;2022-09-03T06:08:26;14.50;9.00
20574;DHT22;10445;50.216;7.912;2022-09-03T06:11:14;14.40;9.80
20574;DHT22;10445;50.216;7.912;2022-09-03T06:14:04;14.30;18.50
20574;DHT22;10445;50.216;7.912;2022-09-03T06:16:55;14.00;35.60
20574;DHT22;10445;50.216;7.912;2022-09-03T06:19:44;13.80;50.70
20574;DHT22;10445;50.216;7.912;2022-09-03T06:22:33;13.60;56.00
20574;DHT22;10445;50.216;7.912;2022-09-03T06:25:21;13.40;55.90
20574;DHT22;10445;50.216;7.912;2022-09-03T06:28:11;13.30;61.00
20574;DHT22;10445;50.216;7.912;2022-09-03T06:31:00;13.30;66.60
20574;DHT22;10445;50.216;7.912;2022-09-03T06:33:51;13.20;67.40
20574;DHT22;10445;50.216;7.912;2022-09-03T06:36:41;13.20;71.80
20574;DHT22;10445;50.216;7.912;2022-09-03T06:39:29;13.20;70.40
20574;DHT22;10445;50.216;7.912;2022-09-03T06:42:18;13.20;70.90
20574;DHT22;10445;50.216;7.912;2022-09-03T06:45:10;13.20;70.80
20574;DHT22;10445;50.216;7.912;2022-09-03T06:47:58;13.30;73.00
20574;DHT22;10445;50.216;7.912;2022-09-03T06:50:56;13.30;72.70
20574;DHT22;10445;50.216;7.912;2022-09-03T06:53:46;13.50;70.90
20574;DHT22;10445;50.216;7.912;2022-09-03T06:56:37;13.60;72.30
20574;DHT22;10445;50.216;7.912;2022-09-03T06:59:27;13.80;70.50
20574;DHT22;10445;50.216;7.912;2022-09-03T07:02:16;13.90;69.20
20574;DHT22;10445;50.216;7.912;2022-09-03T07:05:06;13.90;71.80
20574;DHT22;10445;50.216;7.912;2022-09-03T07:07:56;14.00;68.30
20574;DHT22;10445;50.216;7.912;2022-09-03T07:10:45;14.10;70.80
20574;DHT22;10445;50.216;7.912;2022-09-03T07:13:35;14.20;65.50
20574;DHT22;10445;50.216;7.912;2022-09-03T07:16:27;14.40;66.50
20574;DHT22;10445;50.216;7.912;2022-09-03T07:19:16;14.50;61.60
20574;DHT22;10445;50.216;7.912;2022-09-03T07:22:05;14.60;60.10
20574;DHT22;10445;50.216;7.912;2022-09-03T07:24:58;14.70;56.00
20574;DHT22;10445;50.216;7.912;2022-09-03T07:27:46;14.80;57.90
20574;DHT22;10445;50.216;7.912;2022-09-03T07:30:37;14.90;56.40
20574;DHT22;10445;50.216;7.912;2022-09-03T07:33:27;14.90;54.30
20574;DHT22;10445;50.216;7.912;2022-09-03T07:36:20;14.90;51.90
20574;DHT22;10445;50.216;7.912;2022-09-03T07:39:11;14.90;48.10
20574;DHT22;10445;50.216;7.912;2022-09-03T07:42:02;14.90;52.80
20574;DHT22;10445;50.216;7.912;2022-09-03T07:44:51;14.80;59.30
20574;DHT22;10445;50.216;7.912;2022-09-03T07:47:46;14.50;65.50
20574;DHT22;10445;50.216;7.912;2022-09-03T07:50:35;14.40;68.80
20574;DHT22;10445;50.216;7.912;2022-09-03T07:53:26;14.30;69.70
20574;DHT22;10445;50.216;7.912;2022-09-03T07:56:15;14.40;68.60
20574;DHT22;10445;50.216;7.912;2022-09-03T07:59:06;14.40;68.40
20574;DHT22;10445;50.216;7.912;2022-09-03T08:01:55;14.50;66.70
20574;DHT22;10445;50.216;7.912;2022-09-03T08:04:44;14.50;69.20
20574;DHT22;10445;50.216;7.912;2022-09-03T08:07:33;14.60;67.90
20574;DHT22;10445;50.216;7.912;2022-09-03T08:10:24;14.60;69.90
20574;DHT22;10445;50.216;7.912;2022-09-03T08:13:16;14.70;69.00
20574;DHT22;10445;50.216;7.912;2022-09-03T08:16:07;14.90;70.70
20574;DHT22;10445;50.216;7.912;2022-09-03T08:18:56;15.10;70.00
20574;DHT22;10445;50.216;7.912;2022-09-03T08:21:45;15.30;67.50
20574;DHT22;10445;50.216;7.912;2022-09-03T08:24:34;15.50;67.80
20574;DHT22;10445;50.216;7.912;2022-09-03T08:27:22;15.60;63.50
20574;DHT22;10445;50.216;7.912;2022-09-03T08:30:11;15.80;64.40
20574;DHT22;10445;50.216;7.912;2022-09-03T08:33:02;16.00;67.20
20574;DHT22;10445;50.216;7.912;2022-09-03T08:35:53;16.30;58.80
20574;DHT22;10445;50.216;7.912;2022-09-03T08:38:43;16.50;57.40
20574;DHT22;10445;50.216;7.912;2022-09-03T08:41:40;16.50;58.10
20574;DHT22;10445;50.216;7.912;2022-09-03T08:44:33;16.70;55.70
20574;DHT22;10445;50.216;7.912;2022-09-03T08:47:28;16.80;56.50
20574;DHT22;10445;50.216;7.912;2022-09-03T08:50:24;16.80;57.60
20574;DHT22;10445;50.216;7.912;2022-09-03T08:53:18;16.90;52.90
20574;DHT22;10445;50.216;7.912;2022-09-03T08:56:11;16.90;54.30
20574;DHT22;10445;50.216;7.912;2022-09-03T08:59:00;16.90;53.90
20574;DHT22;10445;50.216;7.912;2022-09-03T09:01:55;16.90;54.10
20574;DHT22;10445;50.216;7.912;2022-09-03T09:04:56;17.10;55.90
20574;DHT22;10445;50.216;7.912;2022-09-03T09:07:52;17.30;58.20
20574;DHT22;10445;50.216;7.912;2022-09-03T09:10:45;17.50;54.20
20574;DHT22;10445;50.216;7.912;2022-09-03T09:13:48;17.80;54.40
20574;DHT22;10445;50.216;7.912;2022-09-03T09:16:46;17.90;51.20
20574;DHT22;10445;50.216;7.912;2022-09-03T09:19:43;18.00;45.80
20574;DHT22;10445;50.216;7.912;2022-09-03T09:22:38;18.00;46.80
20574;DHT22;10445;50.216;7.912;2022-09-03T09:25:39;17.90;49.00
20574;DHT22;10445;50.216;7.912;2022-09-03T09:28:33;17.90;48.10
20574;DHT22;10445;50.216;7.912;2022-09-03T09:31:22;17.80;50.40
20574;DHT22;10445;50.216;7.912;2022-09-03T09:34:12;17.70;46.60
20574;DHT22;10445;50.216;7.912;2022-09-03T09:37:03;17.50;52.50
20574;DHT22;10445;50.216;7.912;2022-09-03T09:39:55;17.40;53.90
20574;DHT22;10445;50.216;7.912;2022-09-03T09:42:45;17.40;54.20
20574;DHT22;10445;50.216;7.912;2022-09-03T09:45:34;17.30;56.20
20574;DHT22;10445;50.216;7.912;2022-09-03T09:48:26;17.30;53.70
20574;DHT22;10445;50.216;7.912;2022-09-03T09:51:19;17.30;55.80
20574;DHT22;10445;50.216;7.912;2022-09-03T09:54:13;17.50;61.50
20574;DHT22;10445;50.216;7.912;2022-09-03T09:57:04;17.70;55.30
20574;DHT22;10445;50.216;7.912;2022-09-03T10:00:05;17.80;54.20
20574;DHT22;10445;50.216;7.912;2022-09-03T10:02:56;17.60;51.90
20574;DHT22;10445;50.216;7.912;2022-09-03T10:05:57;17.30;55.50
20574;DHT22;10445;50.216;7.912;2022-09-03T10:09:10;17.30;58.30
20574;DHT22;10445;50.216;7.912;2022-09-03T10:12:06;17.30;57.50
20574;DHT22;10445;50.216;7.912;2022-09-03T10:15:13;17.40;58.10
20574;DHT22;10445;50.216;7.912;2022-09-03T10:18:13;17.50;63.90
20574;DHT22;10445;50.216;7.912;2022-09-03T10:21:06;17.70;59.50
20574;DHT22;10445;50.216;7.912;2022-09-03T10:24:00;17.80;53.30
20574;DHT22;10445;50.216;7.912;2022-09-03T10:26:54;17.80;56.30
20574;DHT22;10445;50.216;7.912;2022-09-03T10:29:44;17.90;53.90
20574;DHT22;10445;50.216;7.912;2022-09-03T10:32:42;17.70;57.40
20574;DHT22;10445;50.216;7.912;2022-09-03T10:35:40;17.70;56.90
20574;DHT22;10445;50.216;7.912;2022-09-03T10:38:33;17.70;59.20
20574;DHT22;10445;50.216;7.912;2022-09-03T10:41:37;17.80;63.20
20574;DHT22;10445;50.216;7.912;2022-09-03T10:44:43;18.00;58.80
20574;DHT22;10445;50.216;7.912;2022-09-03T10:48:15;18.30;57.40
20574;DHT22;10445;50.216;7.912;2022-09-03T10:51:12;18.70;53.40
20574;DHT22;10445;50.216;7.912;2022-09-03T10:54:25;18.80;53.50
20574;DHT22;10445;50.216;7.912;2022-09-03T10:57:28;18.90;50.00
20574;DHT22;10445;50.216;7.912;2022-09-03T11:00:19;18.80;53.50
20574;DHT22;10445;50.216;7.912;2022-09-03T11:06:41;19.20;49.30
20574;DHT22;10445;50.216;7.912;2022-09-03T11:09:36;19.40;50.40
20574;DHT22;10445;50.216;7.912;2022-09-03T11:12:30;19.60;46.60
20574;DHT22;10445;50.216;7.912;2022-09-03T11:15:24;19.70;40.60
20574;DHT22;10445;50.216;7.912;2022-09-03T11:18:19;19.70;42.20
20574;DHT22;10445;50.216;7.912;2022-09-03T11:21:12;19.60;43.00
20574;DHT22;10445;50.216;7.912;2022-09-03T11:24:07;19.50;46.10
20574;DHT22;10445;50.216;7.912;2022-09-03T11:27:04;19.50;47.10
20574;DHT22;10445;50.216;7.912;2022-09-03T11:29:57;19.50;40.70
20574;DHT22;10445;50.216;7.912;2022-09-03T11:32:50;19.50;44.90
20574;DHT22;10445;50.216;7.912;2022-09-03T11:35:43;19.80;43.40
20574;DHT22;10445;50.216;7.912;2022-09-03T11:38:32;20.00;39.80
20574;DHT22;10445;50.216;7.912;2022-09-03T11:41:26;19.90;34.90
20574;DHT22;10445;50.216;7.912;2022-09-03T11:44:18;19.80;35.90
20574;DHT22;10445;50.216;7.912;2022-09-03T11:47:15;19.70;39.80
20574;DHT22;10445;50.216;7.912;2022-09-03T11:50:08;19.80;38.90
20574;DHT22;10445;50.216;7.912;2022-09-03T11:53:09;20.20;32.90
20574;DHT22;10445;50.216;7.912;2022-09-03T11:56:00;20.60;31.00
20574;DHT22;10445;50.216;7.912;2022-09-03T11:59:00;20.90;26.30
20574;DHT22;10445;50.216;7.912;2022-09-03T12:01:52;21.20;23.40
20574;DHT22;10445;50.216;7.912;2022-09-03T12:04:51;21.40;18.30
20574;DHT22;10445;50.216;7.912;2022-09-03T12:11:27;21.00;13.90
20574;DHT22;10445;50.216;7.912;2022-09-03T12:14:28;20.30;20.40
20574;DHT22;10445;50.216;7.912;2022-09-03T12:17:27;19.90;27.20
20574;DHT22;10445;50.216;7.912;2022-09-03T12:20:19;19.70;29.70
20574;DHT22;10445;50.216;7.912;2022-09-03T12:23:09;19.80;30.90
20574;DHT22;10445;50.216;7.912;2022-09-03T12:26:04;20.20;27.70
20574;DHT22;10445;50.216;7.912;2022-09-03T12:28:56;20.30;30.70
20574;DHT22;10445;50.216;7.912;2022-09-03T12:31:48;20.80;20.60
20574;DHT22;10445;50.216;7.912;2022-09-03T12:34:37;21.10;18.70
20574;DHT22;10445;50.216;7.912;2022-09-03T12:37:32;21.60;18.70
20574;DHT22;10445;50.216;7.912;2022-09-03T12:40:42;22.00;12.60
20574;DHT22;10445;50.216;7.912;2022-09-03T12:43:54;21.90;9.90
20574;DHT22;10445;50.216;7.912;2022-09-03T12:46:43;21.90;9.20
20574;DHT22;10445;50.216;7.912;2022-09-03T12:49:36;21.80;9.60
20574;DHT22;10445;50.216;7.912;2022-09-03T12:52:28;21.50;10.50
20574;DHT22;10445;50.216;7.912;2022-09-03T12:55:31;21.50;12.90
20574;DHT22;10445;50.216;7.912;2022-09-03T12:58:24;21.60;10.40
20574;DHT22;10445;50.216;7.912;2022-09-03T13:01:18;21.80;10.00
20574;DHT22;10445;50.216;7.912;2022-09-03T13:04:09;21.70;9.10
20574;DHT22;10445;50.216;7.912;2022-09-03T13:07:03;21.80;9.30
20574;DHT22;10445;50.216;7.912;2022-09-03T13:10:00;22.00;9.10
20574;DHT22;10445;50.216;7.912;2022-09-03T13:12:50;22.30;6.60
20574;DHT22;10445;50.216;7.912;2022-09-03T13:15:39;22.40;7.00
20574;DHT22;10445;50.216;7.912;2022-09-03T13:18:32;22.60;2.20
20574;DHT22;10445;50.216;7.912;2022-09-03T13:21:38;22.10;2.70
20574;DHT22;10445;50.216;7.912;2022-09-03T13:24:53;21.60;4.70
20574;DHT22;10445;50.216;7.912;2022-09-03T13:27:53;21.20;7.30
20574;DHT22;10445;50.216;7.912;2022-09-03T13:30:52;21.00;11.20
20574;DHT22;10445;50.216;7.912;2022-09-03T13:33:47;21.00;12.00
20574;DHT22;10445;50.216;7.912;2022-09-03T13:36:45;21.30;11.70
20574;DHT22;10445;50.216;7.912;2022-09-03T13:39:40;21.70;7.00
20574;DHT22;10445;50.216;7.912;2022-09-03T13:42:34;21.70;6.80
20574;DHT22;10445;50.216;7.912;2022-09-03T13:45:36;21.50;8.00
20574;DHT22;10445;50.216;7.912;2022-09-03T13:48:30;21.50;7.80
20574;DHT22;10445;50.216;7.912;2022-09-03T13:51:47;21.60;8.20
20574;DHT22;10445;50.216;7.912;2022-09-03T13:54:43;21.70;7.30
20574;DHT22;10445;50.216;7.912;2022-09-03T13:57:38;21.50;8.00
20574;DHT22;10445;50.216;7.912;2022-09-03T14:00:39;21.10;9.00
20574;DHT22;10445;50.216;7.912;2022-09-03T14:03:34;20.80;11.20
20574;DHT22;10445;50.216;7.912;2022-09-03T14:06:35;20.60;13.00
20574;DHT22;10445;50.216;7.912;2022-09-03T14:09:29;20.60;13.40
20574;DHT22;10445;50.216;7.912;2022-09-03T14:12:30;20.40;13.90
20574;DHT22;10445;50.216;7.912;2022-09-03T14:15:40;20.20;15.60
20574;DHT22;10445;50.216;7.912;2022-09-03T14:18:43;20.20;16.40
20574;DHT22;10445;50.216;7.912;2022-09-03T14:21:39;20.30;16.40
20574;DHT22;10445;50.216;7.912;2022-09-03T14:24:43;20.30;16.00
20574;DHT22;10445;50.216;7.912;2022-09-03T14:27:33;20.50;15.70
20574;DHT22;10445;50.216;7.912;2022-09-03T14:30:32;20.60;15.50
20574;DHT22;10445;50.216;7.912;2022-09-03T14:33:31;21.00;13.30
20574;DHT22;10445;50.216;7.912;2022-09-03T14:36:26;21.40;10.70
20574;DHT22;10445;50.216;7.912;2022-09-03T14:39:30;21.40;9.40
20574;DHT22;10445;50.216;7.912;2022-09-03T14:42:35;21.40;8.40
20574;DHT22;10445;50.216;7.912;2022-09-03T14:45:51;21.10;9.60
20574;DHT22;10445;50.216;7.912;2022-09-03T14:49:12;21.00;10.80
20574;DHT22;10445;50.216;7.912;2022-09-03T14:52:38;20.70;12.50
20574;DHT22;10445;50.216;7.912;2022-09-03T14:55:46;20.60;13.90
20574;DHT22;10445;50.216;7.912;2022-09-03T14:59:01;20.50;13.60
20574;DHT22;10445;50.216;7.912;2022-09-03T15:02:06;20.40;15.40
20574;DHT22;10445;50.216;7.912;2022-09-03T15:05:18;20.30;16.00
20574;DHT22;10445;50.216;7.912;2022-09-03T15:08:19;20.20;16.20
20574;DHT22;10445;50.216;7.912;2022-09-03T15:11:16;20.10;18.60
20574;DHT22;10445;50.216;7.912;2022-09-03T15:14:12;20.10;19.40
20574;DHT22;10445;50.216;7.912;2022-09-03T15:17:25;20.10;18.30
20574;DHT22;10445;50.216;7.912;2022-09-03T15:20:23;20.20;18.80
20574;DHT22;10445;50.216;7.912;2022-09-03T15:23:47;20.20;18.70
20574;DHT22;10445;50.216;7.912;2022-09-03T15:26:50;20.30;17.90
20574;DHT22;10445;50.216;7.912;2022-09-03T15:29:54;20.40;16.80
20574;DHT22;10445;50.216;7.912;2022-09-03T15:32:50;20.50;15.30
20574;DHT22;10445;50.216;7.912;2022-09-03T15:35:56;20.40;16.10
20574;DHT22;10445;50.216;7.912;2022-09-03T15:38:51;20.30;16.80
20574;DHT22;10445;50.216;7.912;2022-09-03T15:41:45;20.30;18.00
20574;DHT22;10445;50.216;7.912;2022-09-03T15:44:44;20.30;18.40
20574;DHT22;10445;50.216;7.912;2022-09-03T15:47:47;20.20;17.50
20574;DHT22;10445;50.216;7.912;2022-09-03T15:50:55;20.20;18.90
20574;DHT22;10445;50.216;7.912;2022-09-03T15:53:50;20.10;19.80
20574;DHT22;10445;50.216;7.912;2022-09-03T15:56:47;19.90;21.60
20574;DHT22;10445;50.216;7.912;2022-09-03T15:59:53;19.90;23.00
20574;DHT22;10445;50.216;7.912;2022-09-03T16:02:49;19.80;24.90
20574;DHT22;10445;50.216;7.912;2022-09-03T16:05:46;19.80;27.00
20574;DHT22;10445;50.216;7.912;2022-09-03T16:08:40;19.70;28.40
20574;DHT22;10445;50.216;7.912;2022-09-03T16:11:36;19.70;28.80
20574;DHT22;10445;50.216;7.912;2022-09-03T16:14:30;19.80;29.10
20574;DHT22;10445;50.216;7.912;2022-09-03T16:17:27;19.90;29.00
20574;DHT22;10445;50.216;7.912;2022-09-03T16:20:23;19.80;30.30
20574;DHT22;10445;50.216;7.912;2022-09-03T16:23:18;19.80;31.30
20574;DHT22;10445;50.216;7.912;2022-09-03T16:26:13;19.70;32.10
20574;DHT22;10445;50.216;7.912;2022-09-03T16:28:52;19.60;35.00
20574;DHT22;10445;50.216;7.912;2022-09-03T16:31:54;19.60;36.90
20574;DHT22;10445;50.216;7.912;2022-09-03T16:35:22;19.60;38.30
20574;DHT22;10445;50.216;7.912;2022-09-03T16:38:27;19.50;40.30
20574;DHT22;10445;50.216;7.912;2022-09-03T16:41:22;19.50;41.70
20574;DHT22;10445;50.216;7.912;2022-09-03T16:44:30;19.50;42.30
20574;DHT22;10445;50.216;7.912;2022-09-03T16:47:38;19.50;42.90
20574;DHT22;10445;50.216;7.912;2022-09-03T16:50:41;19.40;44.60
20574;DHT22;10445;50.216;7.912;2022-09-03T16:53:57;19.40;48.40
20574;DHT22;10445;50.216;7.912;2022-09-03T16:57:20;19.20;55.90
20574;DHT22;10445;50.216;7.912;2022-09-03T17:00:12;19.00;63.20
20574;DHT22;10445;50.216;7.912;2022-09-03T17:06:34;18.60;70.00
20574;DHT22;10445;50.216;7.912;2022-09-03T17:09:37;18.30;72.80
20574;DHT22;10445;50.216;7.912;2022-09-03T17:12:35;18.10;76.30
20574;DHT22;10445;50.216;7.912;2022-09-03T17:15:37;17.90;75.50
20574;DHT22;10445;50.216;7.912;2022-09-03T17:18:41;17.70;74.80
20574;DHT22;10445;50.216;7.912;2022-09-03T17:21:39;17.40;70.40
20574;DHT22;10445;50.216;7.912;2022-09-03T17:24:40;17.30;71.30
20574;DHT22;10445;50.216;7.912;2022-09-03T17:27:52;17.30;71.30
20574;DHT22;10445;50.216;7.912;2022-09-03T17:30:50;17.40;70.10
20574;DHT22;10445;50.216;7.912;2022-09-03T17:34:03;17.40;71.10
20574;DHT22;10445;50.216;7.912;2022-09-03T17:37:01;17.50;70.90
20574;DHT22;10445;50.216;7.912;2022-09-03T17:40:06;17.50;69.70
20574;DHT22;10445;50.216;7.912;2022-09-03T17:43:02;17.50;71.60
20574;DHT22;10445;50.216;7.912;2022-09-03T17:46:07;17.50;72.40
20574;DHT22;10445;50.216;7.912;2022-09-03T17:49:00;17.50;72.30
20574;DHT22;10445;50.216;7.912;2022-09-03T17:51:57;17.50;71.80
20574;DHT22;10445;50.216;7.912;2022-09-03T17:54:50;17.50;70.00
20574;DHT22;10445;50.216;7.912;2022-09-03T17:57:46;17.50;70.10
20574;DHT22;10445;50.216;7.912;2022-09-03T18:00:39;17.50;74.60
20574;DHT22;10445;50.216;7.912;2022-09-03T18:03:38;17.40;75.30
20574;DHT22;10445;50.216;7.912;2022-09-03T18:06:29;17.40;75.30
20574;DHT22;10445;50.216;7.912;2022-09-03T18:09:24;17.30;75.10
20574;DHT22;10445;50.216;7.912;2022-09-03T18:12:37;17.30;74.30
20574;DHT22;10445;50.216;7.912;2022-09-03T18:15:36;17.30;75.90
20574;DHT22;10445;50.216;7.912;2022-09-03T18:18:28;17.30;80.00
20574;DHT22;10445;50.216;7.912;2022-09-03T18:21:21;17.20;81.20
20574;DHT22;10445;50.216;7.912;2022-09-03T18:24:29;17.20;86.00
20574;DHT22;10445;50.216;7.912;2022-09-03T18:27:40;17.10;85.80
20574;DHT22;10445;50.216;7.912;2022-09-03T18:30:49;17.10;85.20
20574;DHT22;10445;50.216;7.912;2022-09-03T18:33:56;17.00;84.40
20574;DHT22;10445;50.216;7.912;2022-09-03T18:37:02;16.90;83.30
20574;DHT22;10445;50.216;7.912;2022-09-03T18:40:13;16.90;82.70
20574;DHT22;10445;50.216;7.912;2022-09-03T18:43:22;16.90;81.90
20574;DHT22;10445;50.216;7.912;2022-09-03T18:46:41;16.80;81.00
20574;DHT22;10445;50.216;7.912;2022-09-03T18:50:16;16.80;79.60